Terminal Aerodrome Forecast
Issued by NWS

Home | Current Version | Previous Version | Text Only | Print | Product List | Glossary On
Versions: 1 2 3 4 5 6 7 8 9 10 11 12 13 14 15 16 17 18 19 20 21 22 23 24 25 26
882
FTUS45 KFGZ 010540
TAFGCN
TAF
KGCN 010540Z 0106/0206 06008KT P6SM VCSH SCT025 OVC060
      TEMPO 0108/0112 5SM -SHRA BKN025 OVC060
     FM011500 VRB06KT P6SM -SHRA SCT025 BKN060
     FM020100 VRB03KT P6SM SCT030 BKN080=

USA.gov is the U.S. government's official web portal to all federal, state and local government web resources and services.